createdAt,value
2022-11-28T00:01:31.122Z,73.59
2022-11-28T00:03:59.006Z,73.87
2022-11-28T00:06:27.604Z,74.43
2022-11-28T00:08:56.000Z,74.23
2022-11-28T00:11:25.129Z,73.97
2022-11-28T00:13:53.101Z,73.78
2022-11-28T00:16:23.248Z,73.51
2022-11-28T00:18:51.819Z,74.07
2022-11-28T00:21:20.426Z,73.21
2022-11-28T00:23:49.436Z,73.52
2022-11-28T00:26:19.806Z,74.72
2022-11-28T00:28:49.353Z,73.94
2022-11-28T00:31:18.994Z,74.07
2022-11-28T00:33:47.134Z,74.42
2022-11-28T00:36:15.412Z,75.17
2022-11-28T00:38:43.635Z,75.37
2022-11-28T00:41:13.920Z,75.23
2022-11-28T00:43:42.200Z,76.17
2022-11-28T00:46:11.949Z,75.61
2022-11-28T00:48:39.961Z,76.66
2022-11-28T00:51:09.214Z,76.53
2022-11-28T00:53:37.960Z,76.40
2022-11-28T00:56:06.965Z,76.85
2022-11-28T00:58:35.782Z,76.94
2022-11-28T01:01:09.062Z,77.36
2022-11-28T01:03:38.676Z,78.47
2022-11-28T01:06:07.738Z,77.93
2022-11-28T01:08:35.854Z,78.22
2022-11-28T01:11:04.426Z,78.15
2022-11-28T01:13:32.295Z,77.90
2022-11-28T01:16:00.314Z,78.21
2022-11-28T01:18:28.129Z,78.36
2022-11-28T01:20:57.379Z,77.89
2022-11-28T01:23:25.151Z,78.74
2022-11-28T01:25:52.933Z,79.13
2022-11-28T01:28:20.698Z,79.35
2022-11-28T01:30:48.565Z,79.01
2022-11-28T01:33:16.452Z,78.42
2022-11-28T01:35:44.274Z,79.35
2022-11-28T01:38:13.500Z,79.30
2022-11-28T01:40:46.385Z,78.44
2022-11-28T01:43:14.250Z,79.17
2022-11-28T01:45:42.087Z,79.46
2022-11-28T01:48:14.890Z,79.54
2022-11-28T01:50:46.012Z,78.54
2022-11-28T01:53:15.715Z,78.49
2022-11-28T01:55:50.376Z,78.36
2022-11-28T01:58:18.321Z,78.72
2022-11-28T02:00:47.144Z,79.02
2022-11-28T02:03:18.736Z,78.24
2022-11-28T02:05:47.096Z,78.00
2022-11-28T02:08:16.256Z,78.17
2022-11-28T02:10:55.345Z,78.24
2022-11-28T02:13:34.865Z,78.49
2022-11-28T02:16:14.871Z,78.73
2022-11-28T02:18:58.213Z,79.19
2022-11-28T02:21:50.386Z,77.68
2022-11-28T02:24:50.864Z,77.78
2022-11-28T02:27:29.524Z,78.70
2022-11-28T02:30:12.259Z,78.34
2022-11-28T02:32:58.632Z,78.77
2022-11-28T02:35:35.522Z,77.85
2022-11-28T02:38:09.395Z,77.58
2022-11-28T02:40:39.904Z,77.33
2022-11-28T02:43:17.875Z,78.07
2022-11-28T02:45:51.658Z,76.74
2022-11-28T02:48:30.322Z,77.05
2022-11-28T02:51:04.327Z,77.52
2022-11-28T02:53:34.028Z,76.52
2022-11-28T02:56:02.342Z,77.68
2022-11-28T02:58:30.458Z,77.49
2022-11-28T03:00:58.705Z,77.59
2022-11-28T03:03:48.568Z,77.76
2022-11-28T03:06:28.616Z,77.37
2022-11-28T03:09:07.425Z,76.73
2022-11-28T03:11:48.599Z,77.60
2022-11-28T03:14:25.307Z,77.34
2022-11-28T03:17:02.970Z,77.60
2022-11-28T03:19:35.693Z,77.36
2022-11-28T03:22:11.340Z,77.44
2022-11-28T03:24:45.168Z,76.94
2022-11-28T03:27:18.870Z,78.29
2022-11-28T03:29:52.419Z,77.67
2022-11-28T03:32:24.392Z,77.70
2022-11-28T03:34:58.494Z,76.65
2022-11-28T03:37:31.102Z,77.14
2022-11-28T03:40:03.755Z,77.36
2022-11-28T03:42:37.163Z,78.28
2022-11-28T03:45:10.816Z,78.01
2022-11-28T03:47:43.713Z,77.63
2022-11-28T03:50:18.794Z,78.15
2022-11-28T03:52:51.756Z,77.77
2022-11-28T03:55:24.964Z,78.05
2022-11-28T03:57:59.694Z,78.08
2022-11-28T04:00:27.767Z,77.96
2022-11-28T04:03:07.659Z,77.99
2022-11-28T04:05:44.109Z,78.44
2022-11-28T04:08:18.317Z,77.99
2022-11-28T04:10:54.563Z,78.19
2022-11-28T04:13:27.072Z,77.38
2022-11-28T04:15:59.786Z,78.23
2022-11-28T04:18:30.932Z,78.42
2022-11-28T04:21:08.237Z,78.21
2022-11-28T04:23:38.972Z,78.48
2022-11-28T04:26:12.777Z,78.38
2022-11-28T04:28:42.203Z,79.17
2022-11-28T04:31:11.332Z,79.10
2022-11-28T04:33:44.188Z,78.94
2022-11-28T04:36:18.656Z,79.23
2022-11-28T04:38:56.424Z,78.71
2022-11-28T04:41:28.858Z,79.13
2022-11-28T04:44:02.086Z,79.98
2022-11-28T04:46:36.380Z,79.00
2022-11-28T04:49:04.517Z,79.33
2022-11-28T04:51:43.826Z,79.10
2022-11-28T04:54:20.835Z,79.38
2022-11-28T04:56:56.670Z,80.02
2022-11-28T04:59:27.353Z,79.12
2022-11-28T05:01:58.378Z,79.78
2022-11-28T05:04:26.685Z,79.21
2022-11-28T05:07:03.413Z,78.52
2022-11-28T05:09:31.297Z,79.27
2022-11-28T05:11:59.199Z,78.84
2022-11-28T05:14:27.732Z,78.94
2022-11-28T05:16:55.623Z,79.19
2022-11-28T05:19:23.795Z,79.19
2022-11-28T05:21:53.140Z,79.25
2022-11-28T05:24:22.666Z,78.50
2022-11-28T05:26:50.678Z,78.74
2022-11-28T05:29:18.722Z,79.81
2022-11-28T05:31:46.542Z,78.43
2022-11-28T05:34:14.368Z,78.41
2022-11-28T05:36:42.145Z,78.70
2022-11-28T05:39:09.957Z,78.54
2022-11-28T05:41:39.145Z,78.50
2022-11-28T05:44:07.299Z,78.59
2022-11-28T05:46:35.218Z,78.53
2022-11-28T05:49:03.047Z,78.84
2022-11-28T05:51:31.070Z,78.84
2022-11-28T05:53:59.192Z,78.89
2022-11-28T05:56:26.987Z,78.08
2022-11-28T05:58:56.356Z,78.49
2022-11-28T06:01:26.589Z,78.99
2022-11-28T06:04:08.016Z,78.28
2022-11-28T06:06:36.685Z,79.26
2022-11-28T06:09:06.073Z,78.48
2022-11-28T06:11:35.539Z,77.76
2022-11-28T06:14:04.901Z,79.08
2022-11-28T06:16:33.484Z,78.06
2022-11-28T06:19:03.458Z,78.89
2022-11-28T06:21:32.149Z,79.01
2022-11-28T06:24:00.783Z,78.91
2022-11-28T06:26:29.901Z,78.05
2022-11-28T06:28:58.516Z,78.04
2022-11-28T06:31:30.028Z,78.15
2022-11-28T06:33:58.625Z,78.21
2022-11-28T06:36:27.696Z,78.21
2022-11-28T06:38:55.524Z,78.48
2022-11-28T06:41:23.654Z,78.03
2022-11-28T06:43:52.018Z,78.40
2022-11-28T06:46:22.292Z,78.62
2022-11-28T06:48:52.890Z,78.45
2022-11-28T06:51:21.870Z,78.65
2022-11-28T06:53:49.947Z,78.74
2022-11-28T06:56:20.714Z,79.40
2022-11-28T06:58:55.173Z,78.41
2022-11-28T07:01:25.058Z,77.90
2022-11-28T07:03:55.326Z,78.89
2022-11-28T07:06:24.744Z,78.39
2022-11-28T07:08:53.564Z,78.16
2022-11-28T07:11:24.094Z,78.92
2022-11-28T07:13:52.015Z,78.66
2022-11-28T07:16:21.518Z,79.15
2022-11-28T07:18:50.045Z,78.14
2022-11-28T07:21:19.875Z,78.28
2022-11-28T07:23:48.847Z,78.48
2022-11-28T07:26:18.688Z,78.35
2022-11-28T07:28:47.524Z,78.40
2022-11-28T07:31:17.529Z,78.78
2022-11-28T07:33:47.152Z,78.04
2022-11-28T07:36:17.071Z,78.12
2022-11-28T07:38:47.906Z,78.01
2022-11-28T07:41:15.903Z,77.93
2022-11-28T07:43:45.555Z,78.35
2022-11-28T07:46:16.965Z,78.39
2022-11-28T07:48:45.379Z,77.98
2022-11-28T07:51:15.196Z,78.03
2022-11-28T07:53:44.062Z,77.73
2022-11-28T07:56:15.336Z,77.73
2022-11-28T07:58:45.313Z,78.39
2022-11-28T08:01:15.275Z,78.20
2022-11-28T08:03:44.594Z,77.82
2022-11-28T08:06:13.315Z,77.29
2022-11-28T08:08:41.892Z,77.40
2022-11-28T08:11:11.301Z,77.75
2022-11-28T08:13:41.195Z,77.46
2022-11-28T08:16:12.746Z,76.93
2022-11-28T08:18:40.728Z,77.11
2022-11-28T08:21:11.223Z,77.60
2022-11-28T08:23:40.052Z,76.82
2022-11-28T08:26:10.394Z,76.75
2022-11-28T08:28:40.206Z,77.42
2022-11-28T08:31:11.902Z,77.06
2022-11-28T08:33:40.172Z,77.33
2022-11-28T08:36:09.348Z,76.38
2022-11-28T08:38:38.034Z,76.63
2022-11-28T08:41:08.241Z,77.21
2022-11-28T08:43:36.762Z,76.93
2022-11-28T08:46:06.861Z,76.17
2022-11-28T08:48:36.071Z,76.35
2022-11-28T08:51:04.503Z,76.81
2022-11-28T08:53:32.889Z,76.85
2022-11-28T08:56:01.229Z,76.33
2022-11-28T08:58:29.267Z,76.16
2022-11-28T09:00:57.181Z,75.66
2022-11-28T09:03:26.502Z,75.90
2022-11-28T09:05:54.496Z,75.20
2022-11-28T09:08:23.402Z,75.68
2022-11-28T09:10:51.311Z,75.91
2022-11-28T09:13:19.459Z,75.15
2022-11-28T09:15:51.224Z,75.68
2022-11-28T09:18:23.692Z,75.12
2022-11-28T09:20:58.919Z,76.08
2022-11-28T09:23:26.913Z,74.87
2022-11-28T09:25:54.938Z,75.17
2022-11-28T09:28:23.148Z,75.00
2022-11-28T09:30:51.457Z,75.24
2022-11-28T09:33:19.453Z,74.76
2022-11-28T09:35:47.599Z,74.05
2022-11-28T09:38:17.119Z,74.37
2022-11-28T09:40:45.690Z,74.19
2022-11-28T09:43:18.071Z,74.01
2022-11-28T09:45:50.569Z,73.67
2022-11-28T09:48:26.799Z,73.67
2022-11-28T09:51:02.127Z,73.66
2022-11-28T09:53:37.689Z,72.68
2022-11-28T09:56:10.712Z,72.70
2022-11-28T09:58:46.738Z,72.06
2022-11-28T10:01:21.862Z,72.65
2022-11-28T10:03:57.130Z,72.19
2022-11-28T10:06:29.880Z,71.32
2022-11-28T10:09:27.304Z,71.59
2022-11-28T10:12:09.333Z,71.90
2022-11-28T10:15:09.744Z,72.19
2022-11-28T10:17:48.489Z,71.93
2022-11-28T10:20:22.415Z,72.21
2022-11-28T10:22:54.401Z,72.59
2022-11-28T10:25:28.265Z,72.32
2022-11-28T10:27:57.234Z,71.81
2022-11-28T10:30:27.364Z,71.50
2022-11-28T10:33:01.927Z,71.34
2022-11-28T10:35:40.532Z,71.16
2022-11-28T10:38:14.042Z,70.47
2022-11-28T10:40:49.052Z,70.28
2022-11-28T10:43:30.408Z,70.32
2022-11-28T10:46:05.588Z,69.86
2022-11-28T10:48:43.976Z,69.91
2022-11-28T10:51:26.977Z,68.99
2022-11-28T10:54:10.374Z,71.33
2022-11-28T10:56:52.443Z,70.29
2022-11-28T10:59:32.612Z,70.60
2022-11-28T11:02:04.931Z,70.56
2022-11-28T11:04:37.951Z,70.99
2022-11-28T11:07:20.213Z,70.60
2022-11-28T11:09:50.674Z,70.64
2022-11-28T11:12:25.626Z,70.04
2022-11-28T11:14:53.985Z,70.82
2022-11-28T11:17:36.320Z,69.42
2022-11-28T11:20:27.867Z,69.64
2022-11-28T11:22:57.042Z,69.31
2022-11-28T11:25:26.517Z,69.46
2022-11-28T11:27:57.745Z,68.95
2022-11-28T11:30:29.627Z,69.49
2022-11-28T11:33:00.701Z,70.10
2022-11-28T11:35:31.227Z,69.65
2022-11-28T11:38:18.877Z,69.92
2022-11-28T11:40:47.414Z,69.55
2022-11-28T11:43:30.861Z,69.29
2022-11-28T11:46:07.828Z,69.59
2022-11-28T11:48:37.699Z,69.29
2022-11-28T11:51:06.862Z,69.45
2022-11-28T11:53:34.790Z,68.99
2022-11-28T11:56:04.624Z,67.43
2022-11-28T11:58:44.518Z,69.28
2022-11-28T12:01:14.642Z,68.82
2022-11-28T12:03:52.465Z,67.29
2022-11-28T12:06:25.154Z,69.19
2022-11-28T12:08:55.515Z,69.02
2022-11-28T12:11:27.656Z,69.58
2022-11-28T12:14:01.484Z,70.37
2022-11-28T12:16:46.749Z,70.28
2022-11-28T12:19:27.326Z,70.20
2022-11-28T12:22:07.307Z,70.34
2022-11-28T12:31:37.024Z,70.60
2022-11-28T13:15:16.775Z,81.71
2022-11-28T13:18:15.404Z,80.76
2022-11-28T13:20:52.917Z,81.01
2022-11-28T13:23:29.440Z,81.30
2022-11-28T13:26:06.600Z,81.19
2022-11-28T13:28:43.550Z,82.54
2022-11-28T13:31:37.025Z,82.27
2022-11-28T13:34:09.429Z,82.49
2022-11-28T13:39:51.485Z,83.17
2022-11-28T13:43:03.095Z,83.47
2022-11-28T13:45:32.664Z,83.83
2022-11-28T13:49:12.590Z,83.55
2022-11-28T13:51:33.412Z,84.00
2022-11-28T13:54:48.916Z,84.20
2022-11-28T13:57:40.438Z,84.63
2022-11-28T14:00:28.275Z,84.53
2022-11-28T14:03:21.181Z,83.71
2022-11-28T14:05:58.027Z,84.08
2022-11-28T14:08:32.890Z,83.54
2022-11-28T14:11:34.614Z,84.06
2022-11-28T14:14:42.741Z,82.44
2022-11-28T14:17:38.329Z,83.75
2022-11-28T14:20:21.042Z,84.23
2022-11-28T14:23:08.145Z,83.83
2022-11-28T14:25:43.580Z,83.06
2022-11-28T14:28:23.859Z,82.92
2022-11-28T14:30:53.821Z,82.83
2022-11-28T14:33:27.354Z,83.22
2022-11-28T14:36:24.772Z,84.30
2022-11-28T14:39:39.987Z,83.98
2022-11-28T14:42:59.428Z,84.15
2022-11-28T14:45:50.010Z,83.82
2022-11-28T14:48:32.505Z,83.95
2022-11-28T14:51:02.672Z,86.78
2022-11-28T14:53:51.714Z,84.48
2022-11-28T14:56:31.596Z,82.37
2022-11-28T14:59:05.815Z,83.63
2022-11-28T15:01:54.296Z,81.78
2022-11-28T15:04:42.813Z,82.56
2022-11-28T15:07:30.483Z,82.73
2022-11-28T15:10:11.484Z,83.65
2022-11-28T15:12:49.053Z,83.76
2022-11-28T15:15:23.461Z,83.57
2022-11-28T15:17:56.607Z,84.12
2022-11-28T15:20:32.917Z,84.08
2022-11-28T15:23:37.123Z,83.71
2022-11-28T15:26:27.115Z,83.99
2022-11-28T15:29:10.406Z,84.53
2022-11-28T15:31:39.110Z,84.94
2022-11-28T15:34:13.608Z,84.70
2022-11-28T15:36:44.165Z,85.29
2022-11-28T15:39:29.951Z,85.63
2022-11-28T15:42:02.877Z,84.94
2022-11-28T15:45:13.182Z,85.15
2022-11-28T15:48:13.571Z,83.98
2022-11-28T15:51:54.862Z,84.51
2022-11-28T16:02:20.078Z,85.91
2022-11-28T16:08:25.042Z,85.39
2022-11-28T16:11:20.365Z,85.66
2022-11-28T16:13:49.268Z,85.98
2022-11-28T16:16:20.366Z,85.63
2022-11-28T16:18:56.800Z,85.53
2022-11-28T16:21:30.475Z,85.46
2022-11-28T16:24:00.698Z,86.01
2022-11-28T16:26:33.984Z,85.80
2022-11-28T16:29:13.330Z,85.97
2022-11-28T16:31:42.938Z,86.02
2022-11-28T16:34:14.996Z,85.63
2022-11-28T16:36:47.903Z,85.84
2022-11-28T16:39:18.400Z,85.83
2022-11-28T16:41:54.702Z,89.88
2022-11-28T16:44:26.197Z,87.61
2022-11-28T16:46:56.035Z,84.89
2022-11-28T16:49:34.631Z,84.89
2022-11-28T16:52:46.780Z,85.16
2022-11-28T16:55:44.225Z,86.19
2022-11-28T16:58:15.423Z,85.83
2022-11-28T17:00:53.898Z,85.83
2022-11-28T17:03:44.443Z,86.58
2022-11-28T17:06:36.919Z,86.00
2022-11-28T17:09:10.288Z,86.18
2022-11-28T17:11:45.979Z,85.88
2022-11-28T17:14:15.430Z,86.00
2022-11-28T17:16:45.370Z,86.84
2022-11-28T17:19:14.071Z,87.08
2022-11-28T17:21:44.852Z,86.59
2022-11-28T17:24:18.861Z,87.18
2022-11-28T17:26:54.433Z,86.68
2022-11-28T17:29:25.386Z,87.34
2022-11-28T17:31:55.703Z,87.66
2022-11-28T17:34:25.780Z,87.73
2022-11-28T17:36:54.307Z,87.42
2022-11-28T17:39:24.392Z,87.20
2022-11-28T17:41:53.877Z,87.50
2022-11-28T17:44:27.900Z,87.48
2022-11-28T17:46:59.084Z,87.97
2022-11-28T17:49:31.237Z,87.51
2022-11-28T17:52:02.326Z,86.95
2022-11-28T17:54:47.012Z,87.39
2022-11-28T17:57:18.461Z,87.37
2022-11-28T17:59:49.774Z,87.74
2022-11-28T18:02:30.082Z,88.07
2022-11-28T18:05:21.837Z,87.89
2022-11-28T18:08:25.066Z,87.82
2022-11-28T18:11:17.643Z,88.13
2022-11-28T18:13:48.484Z,88.00
2022-11-28T18:16:30.461Z,88.14
2022-11-28T18:19:09.759Z,87.99
2022-11-28T18:21:43.076Z,88.34
2022-11-28T18:24:10.973Z,88.04
2022-11-28T18:26:40.623Z,88.46
2022-11-28T18:29:08.768Z,88.56
2022-11-28T18:31:36.898Z,88.85
2022-11-28T18:34:09.613Z,88.82
2022-11-28T18:36:39.087Z,88.32
2022-11-28T18:39:09.044Z,88.57
2022-11-28T18:41:47.541Z,87.97
2022-11-28T18:44:24.919Z,88.13
2022-11-28T18:47:21.407Z,88.25
2022-11-28T18:49:53.517Z,88.25
2022-11-28T18:52:24.245Z,88.51
2022-11-28T18:54:54.504Z,88.29
2022-11-28T18:57:31.746Z,87.83
2022-11-28T19:00:02.123Z,87.62
2022-11-28T19:02:33.623Z,88.09
2022-11-28T19:05:08.413Z,88.04
2022-11-28T19:07:38.634Z,88.23
2022-11-28T19:10:09.234Z,88.68
2022-11-28T19:12:41.953Z,87.93
2022-11-28T19:15:13.026Z,88.11
2022-11-28T19:17:48.087Z,88.49
2022-11-28T19:20:17.601Z,88.39
2022-11-28T19:22:48.134Z,88.06
2022-11-28T19:25:16.706Z,88.60
2022-11-28T19:27:45.958Z,88.60
2022-11-28T19:30:14.494Z,88.37
2022-11-28T19:32:42.461Z,87.82
2022-11-28T19:35:10.736Z,88.00
2022-11-28T19:37:38.800Z,87.84
2022-11-28T19:40:13.161Z,88.12
2022-11-28T19:42:48.332Z,88.33
2022-11-28T19:45:21.635Z,88.49
2022-11-28T19:47:50.906Z,88.88
2022-11-28T19:50:22.766Z,88.47
2022-11-28T19:52:52.475Z,88.54
2022-11-28T19:55:21.372Z,88.38
2022-11-28T19:57:53.312Z,88.00
2022-11-28T20:00:23.122Z,88.36
2022-11-28T20:03:20.836Z,87.71
2022-11-28T20:05:49.438Z,87.74
2022-11-28T20:08:17.507Z,88.36
2022-11-28T20:10:45.594Z,87.90
2022-11-28T20:13:16.422Z,88.03
2022-11-28T20:15:45.103Z,87.48
2022-11-28T20:18:19.748Z,88.14
2022-11-28T20:20:50.945Z,87.68
2022-11-28T20:23:18.826Z,88.01
2022-11-28T20:25:46.835Z,87.98
2022-11-28T20:28:16.280Z,88.02
2022-11-28T20:30:46.458Z,87.40
2022-11-28T20:33:20.719Z,87.66
2022-11-28T20:35:49.529Z,87.40
2022-11-28T20:38:17.551Z,87.31
2022-11-28T20:40:45.481Z,87.36
2022-11-28T20:43:14.256Z,87.18
2022-11-28T20:45:44.147Z,87.50
2022-11-28T20:48:16.800Z,87.18
2022-11-28T20:50:52.313Z,86.96
2022-11-28T20:53:26.921Z,87.60
2022-11-28T20:56:07.038Z,87.54
2022-11-28T20:58:45.169Z,88.03
2022-11-28T21:01:33.465Z,88.63
2022-11-28T21:04:07.744Z,88.44
2022-11-28T21:06:48.840Z,89.12
2022-11-28T21:09:23.983Z,89.14
2022-11-28T21:11:58.929Z,88.77
2022-11-28T21:14:52.112Z,90.22
2022-11-28T21:17:34.459Z,90.67
2022-11-28T21:20:07.121Z,90.28
2022-11-28T21:23:02.565Z,90.32
2022-11-28T21:25:38.250Z,91.46
2022-11-28T21:28:24.982Z,90.22
2022-11-28T21:31:28.706Z,89.51
2022-11-28T21:34:05.257Z,90.05
2022-11-28T21:36:35.606Z,90.45
2022-11-28T21:39:06.697Z,90.39
2022-11-28T21:41:36.351Z,90.65
2022-11-28T21:44:06.469Z,91.48
2022-11-28T21:46:35.498Z,91.57
2022-11-28T21:49:06.994Z,91.88
2022-11-28T21:51:38.754Z,91.32
2022-11-28T21:54:08.949Z,91.60
2022-11-28T21:56:40.896Z,91.97
2022-11-28T21:59:09.861Z,92.08
2022-11-28T22:01:42.261Z,91.83
2022-11-28T22:04:13.864Z,91.99
2022-11-28T22:06:43.978Z,90.85
2022-11-28T22:12:21.990Z,91.54
2022-11-28T22:14:50.144Z,91.76
2022-11-28T22:17:18.236Z,91.48
2022-11-28T22:19:47.557Z,92.64
2022-11-28T22:22:15.688Z,91.87
2022-11-28T22:24:43.679Z,92.58
2022-11-28T22:27:11.785Z,92.91
2022-11-28T22:29:39.713Z,92.45
2022-11-28T22:32:07.678Z,92.62
2022-11-28T22:34:39.692Z,93.16
2022-11-28T22:37:09.582Z,92.35
2022-11-28T22:39:38.981Z,92.81
2022-11-28T22:42:07.372Z,92.89
2022-11-28T22:44:35.671Z,93.35
2022-11-28T22:47:03.680Z,93.24
2022-11-28T22:49:31.702Z,93.18
2022-11-28T22:51:59.699Z,93.79
2022-11-28T22:54:31.458Z,93.43
2022-11-28T22:57:00.047Z,93.44
2022-11-28T22:59:29.639Z,93.22
2022-11-28T23:01:58.298Z,94.00
2022-11-28T23:04:29.608Z,92.98
2022-11-28T23:06:57.820Z,93.36
2022-11-28T23:09:25.946Z,93.35
2022-11-28T23:11:55.284Z,93.35
2022-11-28T23:14:23.541Z,93.17
2022-11-28T23:16:51.601Z,93.45
2022-11-28T23:19:20.960Z,93.04
2022-11-28T23:21:51.103Z,93.45
2022-11-28T23:24:25.064Z,93.59
2022-11-28T23:27:00.171Z,93.69
2022-11-28T23:29:42.277Z,93.97
2022-11-28T23:32:12.490Z,93.40
2022-11-28T23:34:41.467Z,93.71
2022-11-28T23:37:17.728Z,93.88
2022-11-28T23:39:52.908Z,93.78
2022-11-28T23:42:28.788Z,94.09
2022-11-28T23:45:02.692Z,93.94
2022-11-28T23:47:34.648Z,94.13
2022-11-28T23:50:09.811Z,93.54
2022-11-28T23:52:42.229Z,93.75
2022-11-28T23:55:13.451Z,94.07
2022-11-28T23:57:47.218Z,94.29
